Time;durP1;ratioP1;P1;durP2;ratioP2;P2;SDS_P1;SDS_P2;PMS_P1;PMS_P2;Temp;Humidity;BMP_temperature;BMP_pressure;BME280_temperature;BME280_humidity;BME280_pressure;Samples;Min_cycle;Max_cycle;Signal;HPM_P1;HPM_P2
2022/03/24 00:00:25;;;;;;;12.27;9.73;;;;;;;7.12;53.41;97621.19;5057593;28;20535;-49
2022/03/24 00:02:52;;;;;;;11.93;10.53;;;;;;;7.05;53.67;97625.16;5057828;28;20550;-49
2022/03/24 00:05:18;;;;;;;11.33;9.67;;;;;;;6.99;53.88;97621.13;5049681;28;20214;-50
2022/03/24 00:07:47;;;;;;;11.60;9.77;;;;;;;6.99;53.98;97616.69;5057242;28;20635;-50
2022/03/24 00:10:13;;;;;;;11.17;9.47;;;;;;;6.91;54.05;97610.22;5057384;28;20671;-50
2022/03/24 00:12:41;;;;;;;11.10;9.90;;;;;;;6.88;53.96;97616.53;5057484;28;20631;-51
2022/03/24 00:15:09;;;;;;;11.27;10.17;;;;;;;6.83;54.03;97618.63;5057226;28;20249;-51
2022/03/24 00:17:37;;;;;;;11.90;9.83;;;;;;;6.73;55.32;97619.28;5057241;28;20235;-50
2022/03/24 00:20:04;;;;;;;13.17;9.50;;;;;;;6.71;54.85;97616.75;5057265;28;20260;-50
2022/03/24 00:22:31;;;;;;;11.13;9.93;;;;;;;6.69;54.81;97617.78;5055778;28;20235;-50
2022/03/24 00:24:57;;;;;;;10.40;9.30;;;;;;;6.54;55.97;97614.31;5056800;28;20672;-51
2022/03/24 00:27:25;;;;;;;12.90;10.17;;;;;;;6.47;57.02;97620.91;5056930;28;20207;-51
2022/03/24 00:29:53;;;;;;;10.57;9.47;;;;;;;6.47;56.97;97613.00;5057165;28;20228;-50
2022/03/24 00:32:19;;;;;;;11.47;9.13;;;;;;;6.42;56.84;97612.44;5057174;28;20215;-51
2022/03/24 00:34:47;;;;;;;10.60;9.50;;;;;;;6.44;56.45;97611.44;5056951;28;20199;-49
2022/03/24 00:37:14;;;;;;;10.23;9.13;;;;;;;6.38;56.98;97614.41;5057215;28;20221;-50
2022/03/24 00:39:41;;;;;;;10.47;9.10;;;;;;;6.36;57.59;97610.19;5057202;28;20191;-50
2022/03/24 00:42:11;;;;;;;10.63;9.57;;;;;;;6.34;57.67;97606.84;5056689;28;20237;-51
2022/03/24 00:44:38;;;;;;;11.87;9.20;;;;;;;6.26;57.18;97603.81;5056543;28;20691;-49
2022/03/24 00:47:07;;;;;;;11.50;9.53;;;;;;;6.30;56.49;97602.69;5056483;28;20215;-49
2022/03/24 00:49:34;;;;;;;11.73;9.63;;;;;;;6.33;56.86;97597.25;5056810;28;20246;-50
2022/03/24 00:52:03;;;;;;;12.40;9.60;;;;;;;6.33;57.29;97589.38;5056671;28;20214;-52
2022/03/24 00:54:30;;;;;;;12.33;9.57;;;;;;;6.31;57.33;97594.72;5056699;28;20203;-50
2022/03/24 00:56:56;;;;;;;10.43;9.33;;;;;;;6.26;57.26;97596.78;5055803;28;20203;-52
2022/03/24 00:59:23;;;;;;;11.37;9.73;;;;;;;6.26;58.15;97599.41;5057502;28;20210;-51
2022/03/24 01:01:49;;;;;;;11.53;10.07;;;;;;;6.20;58.98;97602.38;5056264;28;20242;-49
2022/03/24 01:04:17;;;;;;;12.17;9.97;;;;;;;5.93;60.29;97599.66;5056171;28;20203;-50
2022/03/24 01:06:44;;;;;;;12.97;10.33;;;;;;;5.98;59.64;97599.38;5056832;28;20218;-50
2022/03/24 01:09:11;;;;;;;14.10;10.50;;;;;;;6.00;59.25;97602.75;5056336;28;20559;-49
2022/03/24 01:11:37;;;;;;;13.07;10.10;;;;;;;5.96;59.42;97601.25;5056443;28;20207;-51
2022/03/24 01:14:07;;;;;;;12.80;11.30;;;;;;;5.69;61.29;97601.06;5056476;28;20632;-49
2022/03/24 01:16:35;;;;;;;15.93;11.63;;;;;;;5.79;60.51;97598.75;5055998;28;20207;-51
2022/03/24 01:19:04;;;;;;;16.03;12.50;;;;;;;5.82;59.74;97594.16;5056871;28;20223;-49
2022/03/24 01:21:33;;;;;;;13.93;12.07;;;;;;;5.78;60.05;97597.88;5055615;28;20222;-50
2022/03/24 01:24:00;;;;;;;13.63;12.03;;;;;;;5.82;60.20;97594.16;5056454;28;20214;-50
2022/03/24 01:26:27;;;;;;;13.43;11.43;;;;;;;5.78;60.67;97597.88;5056495;28;20594;-51
2022/03/24 01:28:54;;;;;;;12.97;11.67;;;;;;;5.53;62.20;97598.47;5055679;28;20230;-50
2022/03/24 01:31:21;;;;;;;13.13;11.73;;;;;;;5.68;60.63;97595.91;5056210;28;20195;-51
2022/03/24 01:33:49;;;;;;;13.37;11.07;;;;;;;5.71;60.40;97599.19;5055984;28;20207;-51
2022/03/24 01:36:16;;;;;;;13.53;11.40;;;;;;;5.64;60.58;97592.59;5056273;28;20214;-51
2022/03/24 01:38:45;;;;;;;14.73;11.40;;;;;;;5.56;61.00;97600.09;5056074;28;20234;-50
2022/03/24 01:41:16;;;;;;;13.70;11.30;;;;;;;5.63;60.82;97593.56;5056277;28;20281;-51
2022/03/24 01:43:43;;;;;;;12.60;10.70;;;;;;;5.65;60.65;97586.44;5055384;28;20207;-49
2022/03/24 01:46:10;;;;;;;11.80;10.60;;;;;;;5.66;60.66;97593.38;5055225;28;20528;-51
2022/03/24 01:48:36;;;;;;;12.53;11.23;;;;;;;5.54;61.72;97591.47;5055991;28;20723;-52
2022/03/24 01:51:03;;;;;;;14.73;11.30;;;;;;;5.58;61.17;97590.34;5068500;28;20184;-52
2022/03/24 01:53:30;;;;;;;15.13;11.47;;;;;;;5.56;60.91;97586.97;5078749;28;20203;-52
2022/03/24 01:56:01;;;;;;;12.20;10.90;;;;;;;5.52;61.32;97590.72;5079316;28;20197;-51
2022/03/24 01:58:28;;;;;;;11.77;10.57;;;;;;;5.49;61.90;97593.53;5078639;28;20183;-51
2022/03/24 02:01:01;;;;;;;11.70;10.47;;;;;;;5.44;61.64;97583.28;5057358;28;20203;-50
2022/03/24 02:03:28;;;;;;;11.90;10.70;;;;;;;5.36;61.72;97585.50;5055938;28;20214;-50
2022/03/24 02:05:55;;;;;;;12.57;10.77;;;;;;;5.34;61.69;97587.38;5055250;28;20218;-51
2022/03/24 02:08:23;;;;;;;11.50;10.23;;;;;;;5.32;61.66;97583.97;5055918;28;20581;-50
2022/03/24 02:10:49;;;;;;;12.87;10.83;;;;;;;5.30;61.48;97583.22;5055210;28;20252;-51
2022/03/24 02:13:17;;;;;;;13.40;10.80;;;;;;;5.27;61.94;97577.31;5055745;28;20203;-51
2022/03/24 02:15:44;;;;;;;12.80;11.33;;;;;;;5.11;63.09;97579.09;5055328;28;20566;-51
2022/03/24 02:18:13;;;;;;;12.67;10.70;;;;;;;4.94;64.02;97578.28;5055148;28;20203;-50
2022/03/24 02:20:41;;;;;;;11.87;10.67;;;;;;;5.09;62.84;97575.75;5055717;28;20219;-51
2022/03/24 02:23:15;;;;;;;12.30;10.70;;;;;;;5.06;63.74;97574.16;5055484;28;20207;-51
2022/03/24 02:25:46;;;;;;;12.23;10.87;;;;;;;5.13;62.80;97579.88;5055125;28;20239;-49
2022/03/24 02:28:12;;;;;;;11.97;10.70;;;;;;;5.09;62.41;97576.59;5057573;28;20203;-49
2022/03/24 02:30:39;;;;;;;11.27;10.07;;;;;;;5.08;62.15;97580.13;5056046;28;20238;-51
2022/03/24 02:33:07;;;;;;;12.93;10.87;;;;;;;5.07;62.30;97575.81;5055932;28;20223;-50
2022/03/24 02:35:36;;;;;;;12.50;11.00;;;;;;;5.06;61.86;97573.28;5056845;28;20199;-49
2022/03/24 02:38:03;;;;;;;13.57;10.83;;;;;;;5.05;62.07;97575.06;5058702;28;20208;-51
2022/03/24 02:40:35;;;;;;;13.93;10.50;;;;;;;5.02;63.14;97580.50;5056039;28;20634;-51
2022/03/24 02:43:02;;;;;;;12.63;11.20;;;;;;;4.81;64.70;97571.22;5059999;28;20207;-52
2022/03/24 02:45:29;;;;;;;13.43;11.23;;;;;;;4.85;64.13;97576.16;5069120;28;20214;-51
2022/03/24 02:47:56;;;;;;;14.47;10.97;;;;;;;4.75;64.45;97575.00;5070648;28;20210;-52
2022/03/24 02:50:23;;;;;;;12.63;11.33;;;;;;;4.83;64.03;97583.28;5074803;28;20230;-52
2022/03/24 02:52:51;;;;;;;15.57;12.07;;;;;;;4.86;63.39;97574.41;5075828;28;20179;-51
2022/03/24 02:55:17;;;;;;;13.10;11.53;;;;;;;4.88;63.65;97572.56;5065202;28;20199;-50
2022/03/24 02:57:45;;;;;;;12.17;10.97;;;;;;;4.80;64.41;97574.75;5064272;28;20253;-51
2022/03/24 03:00:15;;;;;;;16.80;12.43;;;;;;;4.81;64.30;97569.44;5058799;28;20215;-50
2022/03/24 03:02:41;;;;;;;14.97;11.67;;;;;;;4.85;64.14;97577.97;5059272;28;20203;-51
2022/03/24 03:05:09;;;;;;;13.50;11.90;;;;;;;4.88;65.10;97583.88;5059866;28;20759;-50
2022/03/24 03:07:38;;;;;;;14.87;12.33;;;;;;;4.89;65.33;97589.94;5056662;28;20203;-50
2022/03/24 03:10:06;;;;;;;15.20;13.60;;;;;;;4.92;65.76;97590.63;5056798;28;20420;-50
2022/03/24 03:12:36;;;;;;;15.20;13.23;;;;;;;4.96;66.28;97592.16;5062098;28;20214;-50
2022/03/24 03:15:05;;;;;;;14.17;12.40;;;;;;;4.96;65.73;97586.91;5051020;28;20195;-51
2022/03/24 03:17:34;;;;;;;16.07;14.00;;;;;;;4.82;66.83;97596.47;5058683;28;20207;-50
2022/03/24 03:20:03;;;;;;;15.03;13.37;;;;;;;4.71;67.40;97588.38;5060087;28;20199;-51
2022/03/24 03:22:30;;;;;;;16.87;13.67;;;;;;;4.72;65.98;97592.66;5058001;28;20211;-51
2022/03/24 03:24:58;;;;;;;16.13;13.13;;;;;;;4.71;65.77;97601.47;5071800;28;20246;-50
2022/03/24 03:27:27;;;;;;;13.77;12.10;;;;;;;4.77;65.27;97594.13;5070869;28;20666;-51
2022/03/24 03:29:55;;;;;;;14.20;12.37;;;;;;;4.71;65.36;97602.28;5069918;28;20234;-51
2022/03/24 03:32:24;;;;;;;17.17;14.43;;;;;;;4.68;65.76;97597.22;5054811;28;20531;-51
2022/03/24 03:34:50;;;;;;;15.73;13.37;;;;;;;4.67;65.74;97595.56;5053763;28;20199;-50
2022/03/24 03:37:17;;;;;;;15.80;12.50;;;;;;;4.60;65.76;97602.06;5054388;28;20210;-50
2022/03/24 03:39:44;;;;;;;14.70;12.30;;;;;;;4.56;65.73;97597.06;5054549;28;20192;-49
2022/03/24 03:42:10;;;;;;;15.97;13.20;;;;;;;4.54;65.56;97599.75;5054109;28;20213;-52
2022/03/24 03:44:37;;;;;;;16.10;13.07;;;;;;;4.57;65.94;97599.56;5054116;28;20207;-51
2022/03/24 03:47:05;;;;;;;18.73;14.00;;;;;;;4.26;68.09;97605.59;5054015;28;20639;-49
2022/03/24 03:49:34;;;;;;;17.73;13.27;;;;;;;4.14;69.27;97603.66;5054206;28;20226;-50
2022/03/24 03:52:02;;;;;;;15.33;13.10;;;;;;;4.15;67.88;97609.72;5054681;28;20204;-50
2022/03/24 03:54:29;;;;;;;14.83;13.17;;;;;;;4.26;67.66;97604.75;5058123;28;20199;-49
2022/03/24 03:56:55;;;;;;;20.70;13.63;;;;;;;4.29;67.69;97604.59;5057963;28;20214;-51
2022/03/24 03:59:22;;;;;;;22.40;14.50;;;;;;;4.23;69.38;97602.31;5058311;28;20210;-49
2022/03/24 04:01:48;;;;;;;16.03;13.30;;;;;;;4.33;69.27;97604.34;5058124;28;20221;-51
2022/03/24 04:04:15;;;;;;;15.30;13.63;;;;;;;4.41;69.09;97593.47;5067692;28;20183;-51
2022/03/24 04:06:45;;;;;;;14.97;13.33;;;;;;;4.43;68.70;97591.63;5081476;28;20221;-52
2022/03/24 04:09:12;;;;;;;16.10;14.07;;;;;;;4.30;69.07;97590.59;5079249;28;20259;-51
2022/03/24 04:11:40;;;;;;;16.97;13.63;;;;;;;4.24;69.31;97594.38;5069937;28;20207;-51
2022/03/24 04:14:08;;;;;;;15.53;13.73;;;;;;;4.25;68.75;97595.25;5080338;28;20190;-51
2022/03/24 04:16:36;;;;;;;17.17;14.10;;;;;;;4.25;69.09;97596.06;5081407;28;20175;-51
2022/03/24 04:19:05;;;;;;;15.57;13.60;;;;;;;4.18;69.76;97596.50;5070981;28;20199;-52
2022/03/24 04:21:31;;;;;;;18.60;14.60;;;;;;;4.21;69.22;97596.31;5060982;28;20199;-51
2022/03/24 04:23:59;;;;;;;16.70;14.37;;;;;;;4.17;69.14;97589.56;5057418;28;20825;-49
2022/03/24 04:26:27;;;;;;;17.70;14.37;;;;;;;4.13;69.35;97594.09;5057890;28;20211;-50
2022/03/24 04:28:54;;;;;;;16.80;14.40;;;;;;;4.19;69.40;97591.16;5060582;28;20218;-50
2022/03/24 04:31:22;;;;;;;16.67;14.63;;;;;;;4.15;70.00;97591.38;5057302;28;20265;-50
2022/03/24 04:33:49;;;;;;;16.47;14.43;;;;;;;4.08;70.57;97590.00;5057617;28;20632;-49
2022/03/24 04:36:16;;;;;;;18.40;13.93;;;;;;;4.07;69.82;97590.97;5057360;28;20210;-52
2022/03/24 04:38:43;;;;;;;19.23;14.57;;;;;;;3.98;70.82;97592.28;5057694;28;20214;-50
2022/03/24 04:41:12;;;;;;;18.03;15.70;;;;;;;4.05;69.76;97584.94;5057021;28;20195;-50
2022/03/24 04:43:39;;;;;;;19.27;15.27;;;;;;;4.03;69.86;97592.06;5057275;28;20207;-50
2022/03/24 04:46:05;;;;;;;19.80;14.47;;;;;;;4.05;70.24;97595.41;5057332;28;20226;-52
2022/03/24 04:48:35;;;;;;;19.27;15.37;;;;;;;4.02;71.22;97601.66;5057266;28;20241;-50
2022/03/24 04:51:05;;;;;;;18.87;15.40;;;;;;;3.98;71.38;97605.34;5056665;28;20212;-50
2022/03/24 04:53:32;;;;;;;17.20;14.77;;;;;;;3.99;71.12;97605.28;5056084;28;20215;-51
2022/03/24 04:55:59;;;;;;;17.53;15.07;;;;;;;4.03;71.15;97600.75;5057405;28;20548;-51
2022/03/24 04:58:27;;;;;;;21.80;16.10;;;;;;;3.98;71.76;97600.97;5056753;28;20211;-51
2022/03/24 05:00:55;;;;;;;19.10;15.40;;;;;;;3.95;71.97;97605.53;5056888;28;20647;-51
2022/03/24 05:03:21;;;;;;;17.57;14.63;;;;;;;4.05;71.24;97605.88;5055663;28;20207;-51
2022/03/24 05:05:48;;;;;;;17.10;14.67;;;;;;;4.04;71.63;97614.69;5056997;28;20238;-51
2022/03/24 05:08:14;;;;;;;21.50;15.87;;;;;;;3.96;71.10;97615.94;5056669;28;20508;-51
2022/03/24 05:10:41;;;;;;;18.53;15.43;;;;;;;4.03;71.13;97618.22;5056091;28;20234;-50
2022/03/24 05:13:08;;;;;;;20.30;15.47;;;;;;;4.01;71.23;97615.66;5056458;28;20217;-50
2022/03/24 05:15:36;;;;;;;22.27;15.00;;;;;;;3.88;72.39;97625.94;5056620;28;20268;-51
2022/03/24 05:18:03;;;;;;;20.67;16.47;;;;;;;3.99;71.82;97622.75;5055819;28;20216;-50
2022/03/24 05:20:32;;;;;;;18.40;14.80;;;;;;;3.81;72.88;97628.94;5055863;28;20195;-49
2022/03/24 05:22:58;;;;;;;18.30;15.60;;;;;;;3.83;72.99;97629.69;5050486;28;20224;-49
2022/03/24 05:25:26;;;;;;;18.60;14.90;;;;;;;3.94;72.29;97624.75;5049717;28;20252;-50
2022/03/24 05:27:52;;;;;;;20.07;15.90;;;;;;;3.90;72.36;97624.06;5056464;28;20211;-51
2022/03/24 05:30:19;;;;;;;19.20;15.37;;;;;;;3.85;72.69;97626.09;5074950;28;20217;-51
2022/03/24 05:32:47;;;;;;;17.57;14.77;;;;;;;3.83;72.72;97622.69;5079421;28;20234;-53
2022/03/24 05:35:16;;;;;;;17.50;14.47;;;;;;;3.91;72.44;97631.00;5075505;28;20195;-51
2022/03/24 05:37:45;;;;;;;17.40;14.60;;;;;;;3.85;72.83;97631.31;5043334;28;20645;-49
2022/03/24 05:40:13;;;;;;;20.63;15.20;;;;;;;3.83;73.30;97629.69;5054648;28;20207;-50
2022/03/24 05:42:40;;;;;;;18.77;15.07;;;;;;;3.82;73.42;97623.63;5044598;28;20531;-52
2022/03/24 05:45:07;;;;;;;17.80;14.87;;;;;;;3.87;72.58;97632.09;5055550;28;20222;-50
2022/03/24 05:47:34;;;;;;;16.80;14.73;;;;;;;3.93;72.43;97639.59;5056074;28;20203;-50
2022/03/24 05:50:09;;;;;;;18.90;14.80;;;;;;;3.99;72.34;97634.09;5054129;28;20210;-50
2022/03/24 05:52:36;;;;;;;19.70;14.73;;;;;;;4.01;72.72;97634.00;5055406;28;20260;-50
2022/03/24 05:55:04;;;;;;;18.73;15.50;;;;;;;3.99;73.79;97639.31;5055145;28;20238;-50
2022/03/24 05:57:30;;;;;;;18.73;14.10;;;;;;;4.18;72.94;97633.13;5055854;28;20207;-51
2022/03/24 05:59:58;;;;;;;20.80;15.37;;;;;;;4.08;74.12;97637.13;5054424;28;20265;-51
2022/03/24 06:02:25;;;;;;;20.23;15.33;;;;;;;4.16;73.79;97640.22;5055061;28;20264;-51
2022/03/24 06:04:54;;;;;;;18.50;15.43;;;;;;;4.84;72.23;97634.78;5055478;28;20214;-51
2022/03/24 06:07:24;;;;;;;19.27;15.27;;;;;;;5.59;69.16;97638.44;5055087;28;20214;-51
2022/03/24 06:09:50;;;;;;;20.50;16.00;;;;;;;6.60;65.12;97642.84;5055338;28;20351;-50
2022/03/24 06:12:17;;;;;;;17.27;15.33;;;;;;;7.29;63.17;97639.38;5055152;28;20231;-52
2022/03/24 06:14:43;;;;;;;19.10;15.73;;;;;;;7.79;60.42;97646.59;5055077;28;20199;-50
2022/03/24 06:17:10;;;;;;;18.00;15.70;;;;;;;7.39;62.06;97643.09;5055022;28;20239;-52
2022/03/24 06:19:38;;;;;;;19.87;16.30;;;;;;;7.24;62.68;97641.44;5055782;28;20195;-51
2022/03/24 06:22:08;;;;;;;17.27;15.47;;;;;;;7.01;64.11;97649.00;5055620;28;20237;-52
2022/03/24 06:24:36;;;;;;;18.20;16.27;;;;;;;7.19;63.78;97648.78;5054723;28;20705;-50
2022/03/24 06:27:03;;;;;;;17.73;15.77;;;;;;;7.67;61.60;97645.63;5054630;28;20199;-50
2022/03/24 06:29:29;;;;;;;22.87;16.97;;;;;;;8.10;60.97;97645.38;5060493;28;20199;-52
2022/03/24 06:31:56;;;;;;;20.10;16.00;;;;;;;8.87;58.11;97640.03;5077568;28;20219;-52
2022/03/24 06:34:23;;;;;;;20.93;16.30;;;;;;;9.22;57.02;97634.88;5077755;28;20203;-52
2022/03/24 06:36:50;;;;;;;17.57;15.70;;;;;;;9.64;55.85;97644.09;5054296;28;20199;-53
2022/03/24 06:39:17;;;;;;;17.40;15.70;;;;;;;10.13;54.49;97634.19;5042559;28;20690;-50
2022/03/24 06:41:45;;;;;;;17.80;15.97;;;;;;;10.97;52.09;97634.72;5049611;28;20198;-50
2022/03/24 06:44:16;;;;;;;19.83;15.77;;;;;;;11.41;50.85;97640.88;5055686;28;20207;-51
2022/03/24 06:46:42;;;;;;;18.37;16.47;;;;;;;11.70;48.24;97636.72;5055296;28;20250;-52
2022/03/24 06:49:09;;;;;;;18.23;15.87;;;;;;;12.05;48.30;97635.63;5055305;28;20199;-52
2022/03/24 06:51:35;;;;;;;18.17;15.57;;;;;;;12.30;47.58;97635.25;5055030;28;20227;-53
2022/03/24 06:54:04;;;;;;;24.10;15.87;;;;;;;12.63;46.10;97636.88;5055524;28;20207;-54
2022/03/24 06:56:31;;;;;;;27.17;17.50;;;;;;;13.05;45.23;97634.94;5052512;28;20207;-53
2022/03/24 06:58:59;;;;;;;20.80;15.07;;;;;;;13.15;44.00;97643.81;5043994;28;20635;-51
2022/03/24 07:01:26;;;;;;;23.73;16.08;;;;;;;13.36;43.71;97642.78;5055166;28;20211;-53
2022/03/24 07:03:54;;;;;;;23.13;16.58;;;;;;;13.63;43.29;97643.97;5055069;28;20207;-53
2022/03/24 07:06:20;;;;;;;65.43;20.58;;;;;;;13.60;43.66;97647.75;5054744;28;21540;-52
2022/03/24 07:08:48;;;;;;;18.83;16.77;;;;;;;13.17;43.88;97647.19;5054510;28;20217;-53
2022/03/24 07:11:17;;;;;;;28.03;18.60;;;;;;;13.35;42.51;97646.44;5054564;28;20353;-53
2022/03/24 07:13:43;;;;;;;20.40;16.97;;;;;;;13.02;43.05;97654.66;5054212;28;20214;-52
2022/03/24 07:16:14;;;;;;;22.30;18.00;;;;;;;12.33;46.16;97643.78;5054773;28;20204;-52
2022/03/24 07:18:41;;;;;;;26.33;17.57;;;;;;;11.65;47.14;97649.50;5054896;28;20587;-52
2022/03/24 07:21:13;;;;;;;21.10;17.17;;;;;;;11.31;49.12;97651.38;5054940;28;20203;-51
2022/03/24 07:23:41;;;;;;;41.13;19.63;;;;;;;10.99;49.38;97651.28;5055557;28;20192;-52
2022/03/24 07:26:09;;;;;;;73.83;23.83;;;;;;;10.85;50.57;97654.19;5055437;28;20234;-50
2022/03/24 07:28:36;;;;;;;34.27;19.90;;;;;;;10.62;50.58;97652.50;5059204;28;20211;-52
2022/03/24 07:31:10;;;;;;;32.87;19.37;;;;;;;10.34;52.96;97653.78;5058564;28;20237;-51
2022/03/24 07:33:38;;;;;;;26.77;18.07;;;;;;;10.29;50.07;97661.22;5059059;28;20191;-50
2022/03/24 07:36:06;;;;;;;22.17;17.80;;;;;;;10.14;51.06;97653.53;5050173;28;20207;-52
2022/03/24 07:38:33;;;;;;;19.97;16.20;;;;;;;10.00;50.97;97655.44;5059831;28;20207;-51
2022/03/24 07:41:00;;;;;;;23.40;18.40;;;;;;;9.95;52.76;97654.91;5058548;28;20203;-52
2022/03/24 07:43:26;;;;;;;22.17;18.00;;;;;;;9.92;53.51;97660.44;5058763;28;20203;-50
2022/03/24 07:45:53;;;;;;;23.60;18.03;;;;;;;9.85;53.46;97656.56;5063079;28;20214;-52
2022/03/24 07:48:25;;;;;;;24.47;17.30;;;;;;;10.01;52.02;97658.94;5069232;28;20545;-51
2022/03/24 07:50:53;;;;;;;22.43;17.50;;;;;;;10.10;52.21;97654.72;5067185;28;20214;-52
2022/03/24 07:53:30;;;;;;;22.83;17.00;;;;;;;10.19;52.20;97649.66;5058164;28;20214;-51
2022/03/24 07:55:58;;;;;;;22.10;17.00;;;;;;;10.18;51.34;97652.41;5058439;28;20207;-50
2022/03/24 07:58:24;;;;;;;22.93;16.43;;;;;;;10.11;50.78;97645.84;5058090;28;20203;-51
2022/03/24 08:00:52;;;;;;;23.07;17.50;;;;;;;10.18;51.63;97652.41;5058082;28;20213;-52
2022/03/24 08:03:21;;;;;;;22.33;17.57;;;;;;;10.08;50.20;97656.66;5058022;28;20225;-52
2022/03/24 08:05:48;;;;;;;20.23;16.77;;;;;;;10.20;51.29;97656.59;5057896;28;20207;-53
2022/03/24 08:08:15;;;;;;;21.43;16.53;;;;;;;10.18;50.51;97657.69;5058243;28;20209;-51
2022/03/24 08:10:43;;;;;;;19.17;16.13;;;;;;;10.04;50.96;97655.19;5058298;28;20210;-52
2022/03/24 08:13:11;;;;;;;19.43;15.97;;;;;;;10.30;50.87;97649.69;5058513;28;20215;-52
2022/03/24 08:15:38;;;;;;;20.20;16.53;;;;;;;10.39;50.52;97658.69;5058742;28;20260;-50
2022/03/24 08:18:05;;;;;;;17.67;15.80;;;;;;;10.54;50.66;97656.69;5052439;28;20204;-51
2022/03/24 08:20:34;;;;;;;19.80;16.50;;;;;;;10.65;50.70;97657.53;5050397;28;20207;-52
2022/03/24 08:23:01;;;;;;;22.27;16.90;;;;;;;10.66;50.11;97651.31;5058079;28;20655;-50
2022/03/24 08:25:29;;;;;;;23.60;17.43;;;;;;;10.78;50.25;97655.63;5064805;28;20251;-51
2022/03/24 08:27:56;;;;;;;21.47;16.70;;;;;;;10.82;50.02;97654.44;5058358;28;20206;-50
2022/03/24 08:30:22;;;;;;;19.13;16.63;;;;;;;10.88;48.61;97656.59;5069725;28;20648;-52
2022/03/24 08:32:49;;;;;;;18.63;16.53;;;;;;;11.03;48.68;97651.03;5044429;28;20222;-50
2022/03/24 08:35:15;;;;;;;19.83;16.03;;;;;;;11.10;48.32;97660.19;5057250;28;20203;-52
2022/03/24 08:37:45;;;;;;;18.50;16.53;;;;;;;11.13;48.32;97647.53;5056248;28;20204;-52
2022/03/24 08:40:12;;;;;;;20.80;16.23;;;;;;;11.10;48.23;97652.25;5057277;28;20202;-51
2022/03/24 08:42:40;;;;;;;20.50;17.30;;;;;;;11.16;48.02;97662.38;5056683;28;20214;-51
2022/03/24 08:45:08;;;;;;;20.20;16.63;;;;;;;11.24;48.63;97652.84;5057519;28;20207;-53
2022/03/24 08:47:36;;;;;;;21.90;16.70;;;;;;;11.41;47.34;97651.47;5060492;28;20210;-51
2022/03/24 08:50:05;;;;;;;18.67;15.87;;;;;;;11.60;47.30;97651.69;5072846;28;20207;-52
2022/03/24 08:52:32;;;;;;;19.93;17.00;;;;;;;11.82;47.06;97658.75;5067672;28;20227;-52
2022/03/24 08:55:02;;;;;;;21.30;16.63;;;;;;;12.27;46.96;97662.88;5074342;28;20571;-52
2022/03/24 08:57:28;;;;;;;18.37;16.37;;;;;;;12.59;45.16;97652.19;5072444;28;20343;-51
2022/03/24 08:59:56;;;;;;;20.03;17.17;;;;;;;13.08;45.50;97650.63;5068771;28;20230;-53
2022/03/24 09:02:23;;;;;;;21.17;17.33;;;;;;;13.30;42.91;97653.09;5057713;28;20203;-52
2022/03/24 09:04:49;;;;;;;19.13;17.13;;;;;;;13.66;42.46;97660.47;5058144;28;20207;-53
2022/03/24 09:07:16;;;;;;;20.97;17.53;;;;;;;13.68;40.99;97655.84;5057405;28;20203;-53
2022/03/24 09:09:43;;;;;;;21.90;16.73;;;;;;;14.10;41.31;97650.31;5057236;28;20643;-52
2022/03/24 09:12:14;;;;;;;22.37;16.83;;;;;;;14.20;39.55;97654.66;5057525;28;20694;-52
2022/03/24 09:14:43;;;;;;;20.77;17.63;;;;;;;15.02;38.16;97651.41;5057690;28;20203;-51
2022/03/24 09:17:09;;;;;;;22.53;17.73;;;;;;;15.28;38.95;97652.41;5052375;28;20531;-53
2022/03/24 09:19:36;;;;;;;20.50;17.10;;;;;;;15.86;38.03;97643.13;5056496;28;20639;-53
2022/03/24 09:22:05;;;;;;;25.10;17.97;;;;;;;16.16;36.40;97649.06;5057664;28;20531;-53
2022/03/24 09:24:33;;;;;;;20.47;17.67;;;;;;;16.35;36.41;97644.41;5057175;28;20235;-52
2022/03/24 09:27:02;;;;;;;24.10;17.90;;;;;;;16.68;37.20;97639.34;5058658;28;20207;-52
2022/03/24 09:29:30;;;;;;;19.80;17.70;;;;;;;16.60;34.57;97642.78;5070464;28;20195;-52
2022/03/24 09:31:57;;;;;;;23.38;18.45;;;;;;;16.96;35.56;97637.34;5057989;28;20223;-52
2022/03/24 09:34:25;;;;;;;20.13;16.83;;;;;;;17.28;34.94;97637.50;5058519;28;20199;-51
2022/03/24 09:36:53;;;;;;;24.48;18.38;;;;;;;17.26;33.68;97634.97;5057812;28;20217;-52
2022/03/24 09:39:20;;;;;;;24.38;19.50;;;;;;;17.51;34.51;97641.25;5058803;28;20196;-52
2022/03/24 09:41:48;;;;;;;22.88;18.27;;;;;;;18.05;34.22;97647.13;5065765;28;20199;-51
2022/03/24 09:44:15;;;;;;;22.15;17.38;;;;;;;18.04;34.82;97645.44;5071933;28;20199;-53
2022/03/24 09:46:44;;;;;;;24.40;18.08;;;;;;;18.71;34.05;97633.59;5070825;28;20203;-53
2022/03/24 09:49:11;;;;;;;20.88;18.75;;;;;;;18.69;31.75;97636.44;5074698;28;20203;-51
2022/03/24 09:51:40;;;;;;;21.00;17.20;;;;;;;18.78;31.74;97635.41;5073442;28;20291;-52
2022/03/24 09:54:07;;;;;;;23.55;18.85;;;;;;;18.89;32.19;97629.69;5072446;28;20213;-52
2022/03/24 09:56:33;;;;;;;22.48;18.90;;;;;;;19.43;31.55;97629.91;5066861;28;20583;-53
2022/03/24 09:59:00;;;;;;;22.55;19.30;;;;;;;19.39;32.82;97629.38;5069944;28;20203;-53
2022/03/24 10:01:27;;;;;;;20.17;18.08;;;;;;;19.74;31.58;97624.53;5069445;28;20199;-53
2022/03/24 10:04:09;;;;;;;21.02;18.83;;;;;;;19.72;30.38;97627.41;5070698;28;20207;-52
2022/03/24 10:06:37;;;;;;;27.55;19.83;;;;;;;19.51;30.24;97616.47;5068762;28;20206;-51
2022/03/24 10:09:04;;;;;;;22.13;19.70;;;;;;;19.53;31.24;97614.44;5072412;28;20200;-52
2022/03/24 10:11:31;;;;;;;21.20;17.95;;;;;;;19.41;31.00;97614.97;5073511;28;20234;-51
2022/03/24 10:13:59;;;;;;;20.85;18.65;;;;;;;19.50;30.14;97609.41;5072794;28;20203;-52
2022/03/24 10:16:43;;;;;;;22.20;19.20;;;;;;;19.64;29.75;97611.34;5074257;28;20227;-53
2022/03/24 10:19:13;;;;;;;22.92;19.42;;;;;;;19.40;29.74;97608.75;5066257;28;20199;-51
2022/03/24 10:21:42;;;;;;;31.30;20.58;;;;;;;19.63;30.70;97609.66;5061266;28;20203;-51
2022/03/24 10:24:13;;;;;;;22.77;19.50;;;;;;;19.42;31.44;97609.44;5060405;28;20211;-50
2022/03/24 10:26:44;;;;;;;22.05;19.25;;;;;;;20.05;29.56;97608.44;5056550;28;20217;-51
2022/03/24 10:29:15;;;;;;;22.38;19.48;;;;;;;20.59;28.99;97599.25;5057672;28;20199;-50
2022/03/24 10:31:43;;;;;;;23.00;19.80;;;;;;;20.43;29.66;97599.41;5058313;28;20230;-52
2022/03/24 10:34:12;;;;;;;22.92;18.73;;;;;;;20.45;28.67;97593.84;5049080;28;20203;-52
2022/03/24 10:36:45;;;;;;;26.08;20.38;;;;;;;20.70;28.59;97588.06;5050882;28;20234;-51
2022/03/24 10:39:11;;;;;;;25.10;20.48;;;;;;;20.78;28.75;97592.53;5062648;28;20230;-53
2022/03/24 10:41:39;;;;;;;22.58;19.45;;;;;;;21.53;28.16;97601.25;5066058;28;20203;-52
2022/03/24 10:44:07;;;;;;;22.08;19.70;;;;;;;21.52;27.67;97587.97;5064139;28;20211;-53
2022/03/24 10:46:35;;;;;;;22.08;19.67;;;;;;;21.05;26.27;97585.66;5060069;28;20207;-51
2022/03/24 10:49:18;;;;;;;23.75;19.50;;;;;;;21.21;27.08;97583.66;5049855;28;20660;-52
2022/03/24 10:51:46;;;;;;;29.73;20.33;;;;;;;21.09;27.71;97578.91;5063024;28;20244;-52
2022/03/24 10:54:19;;;;;;;25.33;20.23;;;;;;;20.80;28.01;97580.56;5065825;28;20203;-51
2022/03/24 10:56:48;;;;;;;23.08;20.27;;;;;;;21.00;27.25;97583.56;5059570;28;20206;-50
2022/03/24 10:59:14;;;;;;;23.00;20.48;;;;;;;20.97;26.50;97581.25;5055946;28;20233;-51
2022/03/24 11:01:41;;;;;;;22.40;19.95;;;;;;;20.91;26.49;97573.88;5054637;28;20567;-51
2022/03/24 11:04:07;;;;;;;24.13;20.23;;;;;;;21.40;26.13;97571.47;5068021;28;20202;-52
2022/03/24 11:06:35;;;;;;;23.55;18.73;;;;;;;21.94;26.44;97571.09;5076596;28;20245;-52
2022/03/24 11:09:03;;;;;;;21.27;18.77;;;;;;;21.48;25.37;97568.69;5076840;28;20210;-51
2022/03/24 11:11:30;;;;;;;23.85;20.50;;;;;;;21.32;26.42;97566.22;5062883;28;20221;-51
2022/03/24 11:14:04;;;;;;;22.25;19.90;;;;;;;21.39;26.54;97569.81;5061136;28;20199;-51
2022/03/24 11:16:32;;;;;;;21.83;19.48;;;;;;;21.97;25.37;97568.84;5059789;28;20218;-52
2022/03/24 11:19:01;;;;;;;22.13;19.83;;;;;;;22.34;23.99;97570.44;5059108;28;20217;-53
2022/03/24 11:21:32;;;;;;;21.60;19.30;;;;;;;22.78;23.59;97560.22;5043851;28;20206;-53
2022/03/24 11:24:02;;;;;;;22.20;19.95;;;;;;;22.90;23.58;97563.22;5057228;28;20285;-53